Time;durP1;ratioP1;P1;durP2;ratioP2;P2;SDS_P1;SDS_P2;PMS_P1;PMS_P2;Temp;Humidity;BMP_temperature;BMP_pressure;BME280_temperature;BME280_humidity;BME280_pressure;Samples;Min_cycle;Max_cycle;Signal;HPM_P1;HPM_P2
2021/01/23 00:02:08;;;;;;;1.02;1.00;;;2.70;96.10;;;;;;6374075;27;20023;-78
2021/01/23 00:05:09;;;;;;;1.27;1.08;;;2.00;96.00;;;;;;6373459;27;20046;-78
2021/01/23 00:08:09;;;;;;;1.13;1.13;;;1.70;99.90;;;;;;6373927;27;20450;-79
2021/01/23 00:11:10;;;;;;;1.60;1.50;;;3.00;96.30;;;;;;6373554;27;20421;-77
2021/01/23 00:14:11;;;;;;;2.00;1.90;;;2.50;96.40;;;;;;6373670;27;20092;-78
2021/01/23 00:17:11;;;;;;;2.20;2.00;;;2.20;96.50;;;;;;6373422;27;20031;-78
2021/01/23 00:20:12;;;;;;;1.75;1.65;;;2.00;96.70;;;;;;6373320;27;20027;-79
2021/01/23 00:23:13;;;;;;;2.45;2.25;;;1.50;96.10;;;;;;6373398;27;20019;-75
2021/01/23 00:26:13;;;;;;;2.30;2.10;;;2.00;96.70;;;;;;6373206;27;20492;-76
2021/01/23 00:29:14;;;;;;;2.47;2.25;;;1.70;96.50;;;;;;6373508;27;20035;-79
2021/01/23 00:32:15;;;;;;;2.60;2.40;;;2.60;96.80;;;;;;6354705;27;20023;-74
2021/01/23 00:35:15;;;;;;;3.08;2.40;;;2.00;95.80;;;;;;6372932;27;20102;-75
2021/01/23 00:38:16;;;;;;;2.70;2.50;;;2.40;96.00;;;;;;6373186;27;20026;-75
2021/01/23 00:41:17;;;;;;;2.45;2.25;;;2.90;96.40;;;;;;6372856;27;20027;-75
2021/01/23 00:44:18;;;;;;;1.33;1.25;;;2.80;96.70;;;;;;6372905;27;20023;-78
2021/01/23 00:47:18;;;;;;;0.98;0.98;;;2.50;96.70;;;;;;6372943;27;20102;-76
2021/01/23 00:50:19;;;;;;;1.48;1.42;;;1.80;96.60;;;;;;6373220;27;20023;-77
2021/01/23 00:53:20;;;;;;;1.25;1.20;;;;;;;;;;6373183;27;20034;-77
2021/01/23 00:56:20;;;;;;;1.70;1.60;;;1.40;94.80;;;;;;6372810;27;20027;-79
2021/01/23 00:59:21;;;;;;;1.95;1.77;;;2.60;97.00;;;;;;6372689;28;20360;-77
2021/01/23 01:02:21;;;;;;;2.50;2.15;;;1.80;96.90;;;;;;6372648;28;20052;-78
2021/01/23 01:05:22;;;;;;;2.22;2.05;;;1.60;96.80;;;;;;6372694;28;20053;-80
2021/01/23 01:08:23;;;;;;;1.67;1.58;;;1.70;96.80;;;;;;6372583;28;20031;-78
2021/01/23 01:11:23;;;;;;;1.02;1.02;;;1.80;96.80;;;;;;6372822;28;20032;-80
2021/01/23 01:14:24;;;;;;;1.08;1.08;;;1.60;96.90;;;;;;6354446;28;20407;-78
2021/01/23 01:17:24;;;;;;;1.00;1.00;;;3.10;97.00;;;;;;6372577;28;20117;-78
2021/01/23 01:20:25;;;;;;;0.73;0.73;;;2.80;97.30;;;;;;6372758;28;20034;-77
2021/01/23 01:23:26;;;;;;;0.70;0.70;;;1.30;99.90;;;;;;6372781;28;20094;-79
2021/01/23 01:26:26;;;;;;;0.80;0.80;;;1.40;99.90;;;;;;6372415;27;20076;-78
2021/01/23 01:29:27;;;;;;;1.00;1.00;;;1.00;99.90;;;;;;6372542;28;20023;-78
2021/01/23 01:32:27;;;;;;;0.93;0.93;;;1.60;99.90;;;;;;6372446;28;20395;-78
2021/01/23 01:35:28;;;;;;;0.70;0.70;;;1.50;99.90;;;;;;6372268;28;20039;-79
2021/01/23 01:38:28;;;;;;;0.95;0.95;;;1.60;99.90;;;;;;6372436;27;20034;-80
2021/01/23 01:41:29;;;;;;;1.50;0.65;;;1.30;99.90;;;;;;6372189;27;20019;-78
2021/01/23 01:44:30;;;;;;;0.80;0.80;;;1.10;99.90;;;;;;6376008;27;20020;-78
2021/01/23 01:47:31;;;;;;;0.80;0.80;;;3.50;99.90;;;;;;6358756;27;20031;-79
2021/01/23 01:50:31;;;;;;;0.60;0.60;;;1.50;99.90;;;;;;6342001;27;20360;-78
2021/01/23 01:53:32;;;;;;;0.65;0.65;;;;;;;;;;6376866;27;20019;-79
2021/01/23 01:56:33;;;;;;;0.73;0.73;;;1.20;99.90;;;;;;6358847;27;20058;-78
2021/01/23 01:59:34;;;;;;;0.77;0.77;;;1.30;99.90;;;;;;6376966;27;20146;-78
2021/01/23 02:02:40;;;;;;;0.77;0.77;;;1.10;99.90;;;;;;6376624;27;20019;-77
2021/01/23 02:05:59;;;;;;;1.00;1.00;;;1.50;99.90;;;;;;6376573;27;20092;-79
2021/01/23 02:09:12;;;;;;;1.63;1.52;;;1.30;95.50;;;;;;6376572;27;20026;-77
2021/01/23 02:12:26;;;;;;;2.33;2.13;;;1.20;95.70;;;;;;6358294;27;20034;-80
2021/01/23 02:15:27;;;;;;;2.30;2.10;;;1.30;95.70;;;;;;6342374;27;20074;-79
2021/01/23 02:18:39;;;;;;;2.00;1.88;;;2.30;97.10;;;;;;6376670;27;20027;-78
2021/01/23 02:22:04;;;;;;;2.40;2.17;;;2.60;97.20;;;;;;6358297;27;20019;-79
2021/01/23 02:25:05;;;;;;;2.50;2.30;;;1.30;95.60;;;;;;6376534;27;20023;-77
2021/01/23 02:28:18;;;;;;;2.50;2.30;;;1.30;96.80;;;;;;6358100;27;20026;-78
2021/01/23 02:31:19;;;;;;;2.35;2.15;;;3.30;97.20;;;;;;6376061;27;20042;-78
2021/01/23 02:34:22;;;;;;;2.42;2.22;;;1.30;99.90;;;;;;6357849;27;20015;-77
2021/01/23 02:37:23;;;;;;;3.35;2.72;;;1.50;99.90;;;;;;6357806;27;20102;-78
2021/01/23 02:40:24;;;;;;;2.60;2.40;;;;;;;;;;6340814;27;20022;-78
2021/01/23 02:43:25;;;;;;;2.45;2.25;;;;;;;;;;6376045;27;20075;-78
2021/01/23 02:46:25;;;;;;;2.63;2.35;;;1.60;99.90;;;;;;6375968;27;20032;-77
2021/01/23 02:49:26;;;;;;;2.50;2.30;;;1.40;99.90;;;;;;6375489;27;20031;-78
2021/01/23 02:52:48;;;;;;;2.53;2.33;;;1.40;99.90;;;;;;6375583;27;20015;-80
2021/01/23 02:55:52;;;;;;;3.83;2.97;;;1.60;99.90;;;;;;6340252;27;20449;-79
2021/01/23 02:58:53;;;;;;;49.15;21.15;;;3.10;99.90;;;;;;6357220;27;20030;-79
2021/01/23 03:01:53;;;;;;;34.17;15.27;;;3.00;99.90;;;;;;6340337;27;20023;-78
2021/01/23 03:04:56;;;;;;;3.53;2.53;;;1.90;96.00;;;;;;6356632;27;20054;-78
2021/01/23 03:07:57;;;;;;;2.55;2.30;;;2.10;95.90;;;;;;6340663;27;20035;-79
2021/01/23 03:10:57;;;;;;;2.78;2.58;;;1.90;95.90;;;;;;6375378;27;20205;-78
2021/01/23 03:13:58;;;;;;;2.60;2.40;;;2.80;96.30;;;;;;6375087;27;20120;-78
2021/01/23 03:16:59;;;;;;;2.60;2.40;;;2.90;96.50;;;;;;6374684;27;20031;-77
2021/01/23 03:19:59;;;;;;;2.63;2.42;;;1.90;96.40;;;;;;6375011;27;20076;-78
2021/01/23 03:23:00;;;;;;;3.60;3.00;;;2.00;96.60;;;;;;6374753;27;20528;-78
2021/01/23 03:26:00;;;;;;;5.68;4.50;;;1.90;96.50;;;;;;6374799;27;20030;-78
2021/01/23 03:29:01;;;;;;;5.82;5.30;;;1.50;96.40;;;;;;6374552;27;20441;-77
2021/01/23 03:32:02;;;;;;;14.50;10.05;;;1.50;96.40;;;;;;6374378;27;20022;-78
2021/01/23 03:35:04;;;;;;;17.65;12.73;;;1.50;96.50;;;;;;6374759;27;20109;-80
2021/01/23 03:38:05;;;;;;;4.50;4.10;;;1.50;96.10;;;;;;6356281;27;20083;-77
2021/01/23 03:41:05;;;;;;;5.93;5.32;;;1.50;96.50;;;;;;6375084;27;20261;-75
2021/01/23 03:44:06;;;;;;;6.70;5.05;;;1.60;96.40;;;;;;6374262;27;20031;-77
2021/01/23 03:47:07;;;;;;;3.90;3.50;;;2.80;96.70;;;;;;6374578;27;20524;-75
2021/01/23 03:50:08;;;;;;;4.53;3.65;;;3.00;96.80;;;;;;6374456;27;20023;-77
2021/01/23 03:53:09;;;;;;;3.40;3.10;;;1.50;96.10;;;;;;6374317;27;20023;-75
2021/01/23 03:56:10;;;;;;;3.40;3.10;;;2.90;96.60;;;;;;6373946;27;20380;-78
2021/01/23 03:59:10;;;;;;;5.15;3.22;;;1.80;96.40;;;;;;6374423;27;20023;-75
2021/01/23 04:02:11;;;;;;;3.15;2.85;;;1.70;96.30;;;;;;6373880;27;20453;-76
2021/01/23 04:05:11;;;;;;;2.83;2.58;;;3.00;96.70;;;;;;6372998;27;20054;-76
2021/01/23 04:08:12;;;;;;;3.35;2.90;;;1.50;96.30;;;;;;6374142;27;20059;-75
2021/01/23 04:11:13;;;;;;;3.25;2.95;;;1.70;99.90;;;;;;6373592;27;20015;-78
2021/01/23 04:14:13;;;;;;;2.70;2.50;;;1.80;96.60;;;;;;6373773;27;20031;-81
2021/01/23 04:17:14;;;;;;;3.05;2.75;;;3.00;96.80;;;;;;6373377;27;20508;-80
2021/01/23 04:20:14;;;;;;;3.30;3.00;;;1.80;96.50;;;;;;6374027;27;20019;-78
2021/01/23 04:23:15;;;;;;;3.53;3.20;;;2.10;96.50;;;;;;6374112;27;20027;-76
2021/01/23 04:26:15;;;;;;;3.60;3.20;;;1.60;99.90;;;;;;6373218;27;20167;-78
2021/01/23 04:29:16;;;;;;;3.30;3.00;;;2.70;96.60;;;;;;6373408;27;20020;-76
2021/01/23 04:32:17;;;;;;;3.85;3.55;;;2.30;96.60;;;;;;6373196;27;20026;-75
2021/01/23 04:35:17;;;;;;;3.72;3.33;;;1.60;96.50;;;;;;6373117;27;20459;-76
2021/01/23 04:38:18;;;;;;;3.47;3.17;;;1.40;96.30;;;;;;6355141;27;20055;-78
2021/01/23 04:41:18;;;;;;;3.95;3.38;;;1.60;96.60;;;;;;6373412;27;20441;-78
2021/01/23 04:44:19;;;;;;;3.83;3.03;;;1.60;96.60;;;;;;6354708;27;20097;-77
2021/01/23 04:47:19;;;;;;;3.25;2.88;;;3.10;97.10;;;;;;6372962;27;20129;-78
2021/01/23 04:50:20;;;;;;;3.55;3.22;;;1.80;96.60;;;;;;6354705;27;20029;-78
2021/01/23 04:53:21;;;;;;;3.00;2.70;;;2.70;97.00;;;;;;6372706;27;20021;-78
2021/01/23 04:56:21;;;;;;;3.45;3.15;;;1.70;97.00;;;;;;6354615;28;20039;-77
2021/01/23 04:59:22;;;;;;;3.28;2.97;;;2.90;97.30;;;;;;6372660;28;20019;-80
2021/01/23 05:02:23;;;;;;;5.18;3.20;;;2.60;97.50;;;;;;6372690;28;20054;-80
2021/01/23 05:05:23;;;;;;;5.40;3.33;;;1.40;97.10;;;;;;6372352;27;20050;-80
2021/01/23 05:08:34;;;;;;;3.83;3.05;;;1.60;97.00;;;;;;6372648;28;20484;-78
2021/01/23 05:11:45;;;;;;;3.40;3.10;;;2.20;97.30;;;;;;6372472;27;20031;-79
2021/01/23 05:15:05;;;;;;;4.28;3.00;;;2.10;97.40;;;;;;6372752;28;20082;-80
2021/01/23 05:18:07;;;;;;;11.40;7.53;;;1.40;97.00;;;;;;6372786;27;20372;-77
2021/01/23 05:21:10;;;;;;;6.80;3.83;;;1.60;97.30;;;;;;6377970;27;20019;-79
2021/01/23 05:24:12;;;;;;;4.22;3.50;;;1.90;97.40;;;;;;6377569;27;20088;-77
2021/01/23 05:27:13;;;;;;;6.07;5.15;;;1.90;97.10;;;;;;6377811;27;20380;-77
2021/01/23 05:30:14;;;;;;;5.97;4.55;;;3.10;97.30;;;;;;6377747;27;20031;-77
2021/01/23 05:33:16;;;;;;;5.97;4.10;;;1.40;99.90;;;;;;6377668;27;20026;-78
2021/01/23 05:36:17;;;;;;;4.25;3.50;;;1.60;99.90;;;;;;6377881;27;20110;-78
2021/01/23 05:39:17;;;;;;;7.35;4.20;;;1.70;96.80;;;;;;6377497;27;20380;-77
2021/01/23 05:42:18;;;;;;;4.32;3.40;;;1.50;99.90;;;;;;6377492;27;20034;-78
2021/01/23 05:45:19;;;;;;;13.25;11.15;;;1.70;99.90;;;;;;6377331;27;20457;-78
2021/01/23 05:48:19;;;;;;;59.30;41.85;;;1.50;99.90;;;;;;6377644;27;20024;-77
2021/01/23 05:51:20;;;;;;;6.70;4.93;;;2.70;99.90;;;;;;6377520;27;20030;-77
2021/01/23 05:54:21;;;;;;;5.22;4.38;;;2.70;99.90;;;;;;6377230;27;20098;-79
2021/01/23 05:57:21;;;;;;;5.03;3.90;;;1.50;99.90;;;;;;6377001;27;20035;-78
2021/01/23 06:00:22;;;;;;;4.45;4.00;;;1.50;99.90;;;;;;6359031;27;20030;-79
2021/01/23 06:03:23;;;;;;;6.68;5.88;;;1.60;99.90;;;;;;6358662;27;20027;-78
2021/01/23 06:06:23;;;;;;;8.52;5.28;;;1.60;99.90;;;;;;6376623;27;20051;-77
2021/01/23 06:09:37;;;;;;;8.35;6.75;;;2.70;99.90;;;;;;6376859;27;20472;-78
2021/01/23 06:12:39;;;;;;;5.80;4.68;;;2.60;99.90;;;;;;6376879;27;20027;-78
2021/01/23 06:15:40;;;;;;;3.95;3.50;;;2.60;99.90;;;;;;6376834;27;20377;-78
2021/01/23 06:18:41;;;;;;;8.48;6.60;;;2.40;99.90;;;;;;6376926;27;20068;-78
2021/01/23 06:21:44;;;;;;;11.23;6.72;;;2.20;99.90;;;;;;6377023;27;20027;-77
2021/01/23 06:24:48;;;;;;;5.68;4.00;;;2.30;99.90;;;;;;6376555;27;20031;-77
2021/01/23 06:27:49;;;;;;;4.30;3.42;;;2.60;99.90;;;;;;6376259;27;20058;-78
2021/01/23 06:30:49;;;;;;;6.40;4.05;;;2.80;99.90;;;;;;6376115;27;20019;-77
2021/01/23 06:33:50;;;;;;;5.85;3.60;;;3.00;99.90;;;;;;6357923;27;20015;-77
2021/01/23 06:37:21;;;;;;;16.55;4.97;;;2.70;99.90;;;;;;6376419;27;20520;-78
2021/01/23 06:40:28;;;;;;;11.10;7.82;;;1.70;99.90;;;;;;6360527;27;20019;-78
2021/01/23 06:43:29;;;;;;;8.90;7.07;;;1.60;99.90;;;;;;6357924;27;20022;-77
2021/01/23 06:46:29;;;;;;;7.82;6.03;;;1.80;99.90;;;;;;6375961;27;20020;-77
2021/01/23 06:49:30;;;;;;;8.00;5.45;;;2.00;99.90;;;;;;6375844;27;20031;-77
2021/01/23 06:52:30;;;;;;;5.07;4.55;;;2.20;99.90;;;;;;6375981;27;20034;-78
2021/01/23 06:55:51;;;;;;;6.68;5.65;;;2.80;99.90;;;;;;6357216;27;20445;-78
2021/01/23 06:58:51;;;;;;;6.70;4.35;;;2.80;99.90;;;;;;6375740;27;20394;-79
2021/01/23 07:02:02;;;;;;;5.43;4.20;;;2.10;99.90;;;;;;6375290;27;20023;-79
2021/01/23 07:05:06;;;;;;;6.65;5.00;;;1.70;99.90;;;;;;6375484;27;20079;-78
2021/01/23 07:08:07;;;;;;;6.30;5.22;;;1.90;99.90;;;;;;6357186;27;20461;-77
2021/01/23 07:11:12;;;;;;;9.68;6.22;;;2.70;99.90;;;;;;6375516;27;20035;-78
2021/01/23 07:14:12;;;;;;;6.93;5.47;;;2.80;99.90;;;;;;6375280;27;20038;-78
2021/01/23 07:17:13;;;;;;;8.75;6.70;;;2.60;99.90;;;;;;6356581;27;20063;-79
2021/01/23 07:20:15;;;;;;;7.97;6.80;;;2.60;99.90;;;;;;6375529;27;20015;-78
2021/01/23 07:23:15;;;;;;;8.05;6.15;;;2.00;99.90;;;;;;6374994;27;20098;-80
2021/01/23 07:26:16;;;;;;;7.25;4.88;;;3.40;99.90;;;;;;6375307;27;20029;-77
2021/01/23 07:29:17;;;;;;;6.80;6.10;;;2.60;99.90;;;;;;6375081;27;20022;-78
2021/01/23 07:32:17;;;;;;;11.73;6.60;;;2.50;99.90;;;;;;6356904;27;20019;-78
2021/01/23 07:35:19;;;;;;;7.22;5.00;;;3.00;99.90;;;;;;6374705;27;20135;-78
2021/01/23 07:38:19;;;;;;;11.98;7.53;;;2.20;99.90;;;;;;6374809;27;20450;-79
2021/01/23 07:41:20;;;;;;;14.23;6.95;;;3.10;99.90;;;;;;6338671;27;20021;-78
2021/01/23 07:44:23;;;;;;;13.52;6.47;;;2.80;99.90;;;;;;6356081;27;20023;-77
2021/01/23 07:47:24;;;;;;;27.52;12.95;;;3.00;99.90;;;;;;6374496;27;20019;-78
2021/01/23 07:50:25;;;;;;;19.45;10.77;;;2.60;99.90;;;;;;6374678;27;20041;-78
2021/01/23 07:53:25;;;;;;;13.35;7.15;;;2.10;99.90;;;;;;6374699;27;20441;-76
2021/01/23 07:56:26;;;;;;;9.95;6.18;;;3.10;99.90;;;;;;6374516;27;20092;-79
2021/01/23 07:59:46;;;;;;;10.43;6.68;;;2.00;99.90;;;;;;6374386;27;20027;-77
2021/01/23 08:02:53;;;;;;;9.48;5.80;;;2.60;99.90;;;;;;6294036;28;20731;-76
2021/01/23 08:05:54;;;;;;;10.25;5.60;;;2.50;99.90;;;;;;6292760;28;20036;-77
2021/01/23 08:08:55;;;;;;;9.80;5.60;;;2.10;99.90;;;;;;6294011;28;20440;-78
2021/01/23 08:11:55;;;;;;;6.05;5.00;;;2.00;99.90;;;;;;6292730;28;20036;-75
2021/01/23 08:14:56;;;;;;;10.00;5.10;;;2.80;99.90;;;;;;6292476;28;20057;-76
2021/01/23 08:17:57;;;;;;;7.55;4.60;;;3.40;99.90;;;;;;6293837;28;20398;-77
2021/01/23 08:20:58;;;;;;;7.03;4.70;;;3.00;99.90;;;;;;6293840;28;20025;-77
2021/01/23 08:23:58;;;;;;;5.75;4.00;;;3.40;99.90;;;;;;6292302;28;20075;-77
2021/01/23 08:27:01;;;;;;;5.57;4.03;;;3.30;99.90;;;;;;6293526;28;20029;-76
2021/01/23 08:30:01;;;;;;;5.53;4.15;;;3.40;99.90;;;;;;6293677;28;20048;-77
2021/01/23 08:33:04;;;;;;;5.30;3.90;;;2.80;99.90;;;;;;6293441;28;20764;-76
2021/01/23 08:36:05;;;;;;;6.28;4.00;;;3.30;99.90;;;;;;6293176;28;20111;-78
2021/01/23 08:39:06;;;;;;;8.18;3.67;;;3.00;99.90;;;;;;6293271;28;20028;-77
2021/01/23 08:42:06;;;;;;;6.53;3.78;;;3.90;99.90;;;;;;6292028;28;20120;-77
2021/01/23 08:45:08;;;;;;;5.82;3.80;;;3.30;99.30;;;;;;6292940;28;20029;-76
2021/01/23 08:48:08;;;;;;;6.70;5.32;;;3.10;99.90;;;;;;6292746;28;20409;-77
2021/01/23 08:51:09;;;;;;;12.32;6.75;;;3.00;99.50;;;;;;6292796;28;20036;-76
2021/01/23 08:54:10;;;;;;;6.22;4.15;;;3.60;99.50;;;;;;6293167;28;20180;-76
2021/01/23 08:57:10;;;;;;;7.55;4.93;;;3.70;99.10;;;;;;6292896;28;20111;-76
2021/01/23 09:00:13;;;;;;;8.75;4.75;;;3.70;99.00;;;;;;6292382;28;20075;-76
2021/01/23 09:03:14;;;;;;;6.85;4.50;;;3.10;98.40;;;;;;6292782;28;20443;-77
2021/01/23 09:06:14;;;;;;;8.32;4.43;;;3.80;98.10;;;;;;6292374;28;20028;-76
2021/01/23 09:09:15;;;;;;;5.38;4.32;;;3.90;97.20;;;;;;6292595;28;20104;-78
2021/01/23 09:12:15;;;;;;;8.10;4.40;;;3.90;97.10;;;;;;6287060;28;20111;-77
2021/01/23 09:15:16;;;;;;;8.98;4.70;;;4.30;97.00;;;;;;6275808;28;20108;-76
2021/01/23 09:18:17;;;;;;;5.82;4.45;;;3.80;96.50;;;;;;6276070;28;20070;-78
2021/01/23 09:21:17;;;;;;;8.45;5.70;;;4.60;96.40;;;;;;6275544;28;20459;-77
2021/01/23 09:24:18;;;;;;;8.07;5.32;;;4.60;96.00;;;;;;6275503;28;20056;-77
2021/01/23 09:27:18;;;;;;;6.03;4.68;;;4.50;96.00;;;;;;6275422;28;20028;-77
2021/01/23 09:30:19;;;;;;;7.03;5.03;;;4.80;95.30;;;;;;6275421;28;20029;-77
2021/01/23 09:33:20;;;;;;;15.18;8.90;;;4.50;94.60;;;;;;6275638;28;20025;-77
2021/01/23 09:36:20;;;;;;;10.55;5.78;;;4.80;93.90;;;;;;6275463;28;20051;-77
2021/01/23 09:39:21;;;;;;;12.18;8.38;;;4.80;93.70;;;;;;6275372;28;20457;-76
2021/01/23 09:42:21;;;;;;;6.60;4.65;;;4.80;93.70;;;;;;6275340;28;20033;-77
2021/01/23 09:45:22;;;;;;;6.18;4.53;;;5.30;92.90;;;;;;6274235;28;20427;-77
2021/01/23 09:48:23;;;;;;;6.20;4.63;;;5.50;91.50;;;;;;6275174;28;20178;-76
2021/01/23 09:51:23;;;;;;;7.28;3.92;;;5.80;89.10;;;;;;6274933;28;20025;-77
2021/01/23 09:54:24;;;;;;;7.13;4.60;;;6.20;86.70;;;;;;6274799;28;20363;-77
2021/01/23 09:57:24;;;;;;;5.78;5.03;;;6.60;84.40;;;;;;6274797;28;20102;-77
2021/01/23 10:00:25;;;;;;;5.63;4.53;;;6.80;83.20;;;;;;6274577;28;20048;-77
2021/01/23 10:03:26;;;;;;;6.82;4.47;;;6.80;82.80;;;;;;6274639;28;20025;-77
2021/01/23 10:06:26;;;;;;;5.07;4.15;;;7.10;81.80;;;;;;6274943;28;20417;-76
2021/01/23 10:09:27;;;;;;;7.25;4.80;;;6.90;81.50;;;;;;6274557;28;20499;-79
2021/01/23 10:12:29;;;;;;;6.80;4.15;;;6.80;81.40;;;;;;6274606;28;20043;-78
2021/01/23 10:15:32;;;;;;;6.75;4.30;;;6.50;79.80;;;;;;6273199;28;20088;-78
2021/01/23 10:18:35;;;;;;;4.95;3.70;;;6.90;80.10;;;;;;6274627;28;20029;-78
2021/01/23 10:21:36;;;;;;;5.13;3.50;;;7.00;79.80;;;;;;6274400;28;20155;-77
2021/01/23 10:24:37;;;;;;;8.73;4.20;;;7.30;78.10;;;;;;6272874;28;20017;-77
2021/01/23 10:27:38;;;;;;;4.78;4.18;;;7.60;77.60;;;;;;6274171;28;20065;-78
2021/01/23 10:30:39;;;;;;;6.68;4.40;;;8.10;77.40;;;;;;6273794;28;20786;-77
2021/01/23 10:33:39;;;;;;;5.65;4.30;;;8.40;74.10;;;;;;6274009;28;20053;-77
2021/01/23 10:36:40;;;;;;;9.95;4.65;;;8.30;74.50;;;;;;6273748;28;20447;-79
2021/01/23 10:39:41;;;;;;;8.15;6.13;;;8.10;75.60;;;;;;6273711;28;20047;-78
2021/01/23 10:42:41;;;;;;;6.20;4.90;;;8.10;75.50;;;;;;6273589;28;20183;-77
2021/01/23 10:45:42;;;;;;;6.45;4.80;;;7.90;76.00;;;;;;6273877;28;20017;-80
2021/01/23 10:48:42;;;;;;;9.52;6.45;;;7.70;76.00;;;;;;6273547;28;20017;-78
2021/01/23 10:51:43;;;;;;;9.77;5.90;;;7.70;76.90;;;;;;6273347;28;20024;-77
2021/01/23 10:54:44;;;;;;;8.30;4.65;;;7.50;77.60;;;;;;6273435;28;20021;-78
2021/01/23 10:57:44;;;;;;;9.40;4.72;;;7.30;78.10;;;;;;6272514;28;20370;-80
2021/01/23 11:00:45;;;;;;;7.28;4.57;;;7.10;78.50;;;;;;6273190;28;20060;-78
2021/01/23 11:03:45;;;;;;;7.40;4.57;;;7.00;79.70;;;;;;6273600;28;20025;-78
2021/01/23 11:06:46;;;;;;;9.77;4.93;;;6.70;81.20;;;;;;6273624;28;20087;-78
2021/01/23 11:09:47;;;;;;;7.72;4.78;;;6.50;82.30;;;;;;6272036;28;20067;-78
2021/01/23 11:12:47;;;;;;;18.90;9.50;;;6.60;83.00;;;;;;6273146;28;20031;-78
2021/01/23 11:15:48;;;;;;;19.45;7.25;;;6.40;84.30;;;;;;6272913;28;20021;-77
2021/01/23 11:18:49;;;;;;;25.50;8.38;;;6.30;85.50;;;;;;6273226;28;20025;-76
2021/01/23 11:21:49;;;;;;;7.22;4.90;;;6.10;86.40;;;;;;6273137;28;20451;-77
2021/01/23 11:24:50;;;;;;;27.80;10.70;;;6.40;85.20;;;;;;6272857;28;20064;-77
2021/01/23 11:27:50;;;;;;;47.95;14.40;;;6.50;85.20;;;;;;6273143;28;20108;-80
2021/01/23 11:30:53;;;;;;;53.65;16.50;;;6.50;85.60;;;;;;6272583;28;20013;-79
2021/01/23 11:33:54;;;;;;;28.00;10.98;;;6.40;84.40;;;;;;6272610;28;20494;-77
2021/01/23 11:36:54;;;;;;;13.65;6.03;;;5.80;99.90;;;;;;6272337;28;20025;-77
2021/01/23 11:39:55;;;;;;;8.15;4.80;;;6.10;84.70;;;;;;6272516;28;20017;-77
2021/01/23 11:42:55;;;;;;;11.25;5.57;;;5.80;86.30;;;;;;6272409;28;20032;-77
2021/01/23 11:45:56;;;;;;;10.85;6.03;;;5.90;93.80;;;;;;6272330;28;20725;-79
2021/01/23 11:48:57;;;;;;;21.23;9.48;;;5.60;94.60;;;;;;6272758;28;20371;-80
2021/01/23 11:51:57;;;;;;;11.23;7.00;;;6.00;94.60;;;;;;6272675;28;20033;-77
2021/01/23 11:54:58;;;;;;;9.45;5.60;;;6.10;94.20;;;;;;6272598;28;20502;-78
2021/01/23 11:57:58;;;;;;;10.80;6.20;;;5.90;94.20;;;;;;6272236;28;20025;-77
2021/01/23 12:00:59;;;;;;;10.50;6.57;;;6.30;94.00;;;;;;6272072;28;20045;-78
2021/01/23 12:04:00;;;;;;;17.42;13.98;;;6.50;93.30;;;;;;6272183;28;20116;-77
2021/01/23 12:07:00;;;;;;;8.55;5.90;;;6.70;92.90;;;;;;6272484;28;20029;-80
2021/01/23 12:10:01;;;;;;;15.90;6.28;;;7.10;84.30;;;;;;6272025;28;20083;-77
2021/01/23 12:13:02;;;;;;;8.48;5.70;;;7.00;83.40;;;;;;6270766;28;20029;-78
2021/01/23 12:16:04;;;;;;;6.05;4.60;;;7.10;83.20;;;;;;6272071;28;20799;-76
2021/01/23 12:19:04;;;;;;;8.27;4.97;;;7.30;81.40;;;;;;6272066;28;20021;-78
2021/01/23 12:22:05;;;;;;;7.38;4.88;;;7.90;81.30;;;;;;6271931;28;20048;-79
2021/01/23 12:25:10;;;;;;;6.95;4.05;;;8.20;79.80;;;;;;6272022;28;20025;-78
2021/01/23 12:28:10;;;;;;;7.82;4.85;;;8.20;76.10;;;;;;6272026;28;20036;-77
2021/01/23 12:31:11;;;;;;;6.65;3.92;;;8.20;79.90;;;;;;6272143;28;20041;-77
2021/01/23 12:34:11;;;;;;;13.10;7.10;;;7.70;79.80;;;;;;6271731;28;20025;-80
2021/01/23 12:37:12;;;;;;;8.30;6.50;;;7.70;81.90;;;;;;6272057;28;20013;-77
2021/01/23 12:40:13;;;;;;;6.43;4.78;;;6.90;82.30;;;;;;6271924;28;20075;-77
2021/01/23 12:43:14;;;;;;;4.90;3.72;;;6.70;83.00;;;;;;6272218;28;20029;-80
2021/01/23 12:46:14;;;;;;;6.35;3.97;;;6.70;84.00;;;;;;6271952;28;20151;-77
2021/01/23 12:49:15;;;;;;;3.17;2.88;;;6.60;83.50;;;;;;6275685;28;20025;-80
2021/01/23 12:52:16;;;;;;;5.80;4.10;;;6.50;81.20;;;;;;6276282;28;20028;-79
2021/01/23 12:55:16;;;;;;;4.50;2.85;;;6.50;81.30;;;;;;6276556;28;20119;-77
2021/01/23 12:58:19;;;;;;;6.80;3.70;;;6.40;82.20;;;;;;6276168;28;20024;-77
2021/01/23 13:01:20;;;;;;;5.47;3.60;;;6.60;84.30;;;;;;6276333;28;20095;-77
2021/01/23 13:04:21;;;;;;;3.67;3.00;;;6.30;80.90;;;;;;6276097;28;20371;-77
2021/01/23 13:07:21;;;;;;;4.30;2.90;;;6.40;83.10;;;;;;6276437;28;20028;-78
2021/01/23 13:10:22;;;;;;;4.15;3.05;;;7.00;83.90;;;;;;6275930;28;20036;-80
2021/01/23 13:13:25;;;;;;;4.75;3.28;;;7.10;81.80;;;;;;6275752;28;20451;-78
2021/01/23 13:16:27;;;;;;;5.82;2.92;;;7.40;80.60;;;;;;6276171;28;20031;-78
2021/01/23 13:19:27;;;;;;;6.30;3.40;;;7.50;79.20;;;;;;6275707;28;20454;-77
2021/01/23 13:22:28;;;;;;;5.82;3.08;;;7.10;80.00;;;;;;6275870;28;20033;-77
2021/01/23 13:25:28;;;;;;;4.78;3.40;;;7.10;81.20;;;;;;6275585;28;20048;-79
2021/01/23 13:28:29;;;;;;;3.45;2.55;;;6.80;82.50;;;;;;6275560;28;20021;-80
2021/01/23 13:31:30;;;;;;;3.83;2.63;;;6.60;79.50;;;;;;6275263;28;20033;-76
2021/01/23 13:34:31;;;;;;;5.50;2.50;;;6.80;77.50;;;;;;6275513;28;20032;-79
2021/01/23 13:37:31;;;;;;;5.53;2.90;;;6.30;82.20;;;;;;6275410;28;20021;-77
2021/01/23 13:40:32;;;;;;;6.70;2.70;;;6.20;82.60;;;;;;6275002;28;20043;-77
2021/01/23 13:43:34;;;;;;;5.38;2.95;;;6.40;83.90;;;;;;6275307;28;20025;-77
2021/01/23 13:46:34;;;;;;;4.88;3.30;;;6.30;84.20;;;;;;6275423;28;20017;-77
2021/01/23 13:49:35;;;;;;;5.40;4.35;;;6.30;84.10;;;;;;6275165;28;20094;-77
2021/01/23 13:52:35;;;;;;;14.07;8.43;;;6.00;84.80;;;;;;6274977;28;20027;-80
2021/01/23 13:55:36;;;;;;;6.72;5.03;;;6.20;86.50;;;;;;6274913;28;20488;-77
2021/01/23 13:58:37;;;;;;;11.48;8.43;;;5.80;87.60;;;;;;6274528;28;20108;-77
2021/01/23 14:01:37;;;;;;;6.70;5.28;;;5.90;87.30;;;;;;6274555;28;20049;-77
2021/01/23 14:04:38;;;;;;;5.03;3.90;;;5.70;87.70;;;;;;6274872;28;20074;-77
2021/01/23 14:07:39;;;;;;;7.93;3.90;;;5.90;88.20;;;;;;6275190;28;20027;-77
2021/01/23 14:10:39;;;;;;;7.55;3.92;;;6.00;89.30;;;;;;6274650;28;20094;-77
2021/01/23 14:13:40;;;;;;;10.75;5.35;;;5.40;90.50;;;;;;6276380;28;20406;-77
2021/01/23 14:16:40;;;;;;;9.35;5.45;;;5.40;90.60;;;;;;6274284;28;20025;-78
2021/01/23 14:19:41;;;;;;;4.30;3.20;;;5.40;90.80;;;;;;6274303;28;20032;-77
2021/01/23 14:22:42;;;;;;;2.97;2.55;;;5.50;90.50;;;;;;6274231;28;20116;-77
2021/01/23 14:25:42;;;;;;;3.70;2.33;;;5.30;90.90;;;;;;6274465;28;20032;-79
2021/01/23 14:28:43;;;;;;;7.05;2.97;;;5.20;90.20;;;;;;6274359;28;20382;-77
2021/01/23 14:31:44;;;;;;;2.55;2.05;;;5.00;90.00;;;;;;6274035;28;20074;-77
2021/01/23 14:34:45;;;;;;;2.15;1.90;;;5.40;85.40;;;;;;6273796;28;20028;-77
2021/01/23 14:37:46;;;;;;;2.20;1.90;;;5.10;82.70;;;;;;6273942;28;20780;-77
2021/01/23 14:40:46;;;;;;;2.88;1.90;;;5.30;81.60;;;;;;6273668;28;20033;-76
2021/01/23 14:43:50;;;;;;;2.03;1.80;;;5.10;82.60;;;;;;6273799;28;20078;-76
2021/01/23 14:46:51;;;;;;;4.22;2.85;;;4.90;80.20;;;;;;6272764;28;20040;-77
2021/01/23 14:49:52;;;;;;;3.45;2.90;;;5.10;85.60;;;;;;6273788;28;20025;-77
2021/01/23 14:52:52;;;;;;;4.72;2.80;;;5.40;86.50;;;;;;6272692;28;20021;-79
2021/01/23 14:55:53;;;;;;;2.80;2.53;;;5.30;94.20;;;;;;6273882;28;20107;-77
2021/01/23 14:58:54;;;;;;;3.58;3.10;;;5.10;95.20;;;;;;6273693;28;20029;-77
2021/01/23 15:01:54;;;;;;;3.17;2.58;;;5.50;95.70;;;;;;6273278;28;20053;-78
2021/01/23 15:04:55;;;;;;;5.53;3.80;;;5.10;90.30;;;;;;6273255;28;20063;-78
2021/01/23 15:07:55;;;;;;;5.57;3.95;;;4.70;90.50;;;;;;6273472;28;20021;-80
2021/01/23 15:10:56;;;;;;;4.53;3.22;;;4.80;90.60;;;;;;6271827;28;20025;-77
2021/01/23 15:13:57;;;;;;;3.25;2.40;;;4.70;90.60;;;;;;6273394;28;20025;-78
2021/01/23 15:16:57;;;;;;;3.88;3.25;;;4.30;89.20;;;;;;6273419;28;20033;-77
2021/01/23 15:19:58;;;;;;;2.45;2.25;;;4.80;89.20;;;;;;6272956;28;20422;-77
2021/01/23 15:22:58;;;;;;;3.83;2.63;;;4.60;90.10;;;;;;6271552;28;20095;-77
2021/01/23 15:25:59;;;;;;;11.05;8.15;;;4.80;90.30;;;;;;6272830;28;20020;-77
2021/01/23 15:29:00;;;;;;;3.53;3.03;;;4.90;90.80;;;;;;6272923;28;20021;-79
2021/01/23 15:32:00;;;;;;;4.30;3.30;;;4.80;90.00;;;;;;6272613;28;20111;-79
2021/01/23 15:35:01;;;;;;;10.93;5.20;;;4.70;90.10;;;;;;6272592;28;20108;-78
2021/01/23 15:38:02;;;;;;;5.88;3.67;;;4.60;87.20;;;;;;6271511;28;20027;-77
2021/01/23 15:41:03;;;;;;;3.92;3.33;;;5.00;90.50;;;;;;6272724;28;20036;-79
2021/01/23 15:44:04;;;;;;;4.93;3.75;;;4.90;90.90;;;;;;6272555;28;20028;-77
2021/01/23 15:47:06;;;;;;;5.68;3.60;;;4.30;90.90;;;;;;6272645;28;20033;-77
2021/01/23 15:50:07;;;;;;;6.00;2.95;;;5.00;91.20;;;;;;6272433;28;20024;-77
2021/01/23 15:53:10;;;;;;;4.60;3.42;;;4.20;91.40;;;;;;6272203;28;20041;-77
2021/01/23 15:56:11;;;;;;;3.85;2.90;;;4.40;93.80;;;;;;6263321;28;20036;-79